sensor_id;sensor_type;location;lat;lon;timestamp;temperature;humidity
21216;DHT22;10765;50.954;5.322;2022-10-16T00:00:36;13.50;1.00
21216;DHT22;10765;50.954;5.322;2022-10-16T00:03:05;13.60;1.00
21216;DHT22;10765;50.954;5.322;2022-10-16T00:05:33;13.60;99.90
21216;DHT22;10765;50.954;5.322;2022-10-16T00:08:04;13.60;99.90
21216;DHT22;10765;50.954;5.322;2022-10-16T00:10:31;13.60;71.40
21216;DHT22;10765;50.954;5.322;2022-10-16T00:12:59;13.50;1.00
21216;DHT22;10765;50.954;5.322;2022-10-16T00:15:26;13.50;1.00
21216;DHT22;10765;50.954;5.322;2022-10-16T00:17:53;13.50;99.90
21216;DHT22;10765;50.954;5.322;2022-10-16T00:20:20;13.40;1.00
21216;DHT22;10765;50.954;5.322;2022-10-16T00:22:47;13.40;1.00
21216;DHT22;10765;50.954;5.322;2022-10-16T00:25:14;13.30;1.00
21216;DHT22;10765;50.954;5.322;2022-10-16T00:27:41;13.30;1.00
21216;DHT22;10765;50.954;5.322;2022-10-16T00:30:09;13.30;99.90
21216;DHT22;10765;50.954;5.322;2022-10-16T00:32:36;13.30;1.00
21216;DHT22;10765;50.954;5.322;2022-10-16T00:35:04;13.20;1.00
21216;DHT22;10765;50.954;5.322;2022-10-16T00:37:31;13.20;99.90
21216;DHT22;10765;50.954;5.322;2022-10-16T00:39:58;13.20;1.00
21216;DHT22;10765;50.954;5.322;2022-10-16T00:42:25;13.10;1.00
21216;DHT22;10765;50.954;5.322;2022-10-16T00:44:54;13.10;99.90
21216;DHT22;10765;50.954;5.322;2022-10-16T00:47:26;13.00;1.00
21216;DHT22;10765;50.954;5.322;2022-10-16T00:49:59;13.00;1.00
21216;DHT22;10765;50.954;5.322;2022-10-16T00:52:26;13.00;82.70
21216;DHT22;10765;50.954;5.322;2022-10-16T00:54:54;13.00;1.00
21216;DHT22;10765;50.954;5.322;2022-10-16T00:57:22;13.00;1.00
21216;DHT22;10765;50.954;5.322;2022-10-16T00:59:50;13.00;94.10
21216;DHT22;10765;50.954;5.322;2022-10-16T01:02:17;13.00;1.00
21216;DHT22;10765;50.954;5.322;2022-10-16T01:04:47;13.00;1.00
21216;DHT22;10765;50.954;5.322;2022-10-16T01:07:20;13.00;29.90
21216;DHT22;10765;50.954;5.322;2022-10-16T01:10:06;13.10;99.90
21216;DHT22;10765;50.954;5.322;2022-10-16T01:12:40;13.00;1.00
21216;DHT22;10765;50.954;5.322;2022-10-16T01:15:16;13.00;1.00
21216;DHT22;10765;50.954;5.322;2022-10-16T01:17:48;13.00;1.00
21216;DHT22;10765;50.954;5.322;2022-10-16T01:20:23;12.90;1.00
21216;DHT22;10765;50.954;5.322;2022-10-16T01:23:13;12.90;1.00
21216;DHT22;10765;50.954;5.322;2022-10-16T01:25:55;12.80;1.00
21216;DHT22;10765;50.954;5.322;2022-10-16T01:28:32;12.70;99.90
21216;DHT22;10765;50.954;5.322;2022-10-16T01:31:01;12.70;1.00
21216;DHT22;10765;50.954;5.322;2022-10-16T01:33:33;12.70;1.00
21216;DHT22;10765;50.954;5.322;2022-10-16T01:36:07;12.70;1.00
21216;DHT22;10765;50.954;5.322;2022-10-16T01:38:38;12.70;1.00
21216;DHT22;10765;50.954;5.322;2022-10-16T01:41:10;12.70;1.00
21216;DHT22;10765;50.954;5.322;2022-10-16T01:43:41;12.70;1.00
21216;DHT22;10765;50.954;5.322;2022-10-16T01:46:10;12.70;1.00
21216;DHT22;10765;50.954;5.322;2022-10-16T01:48:39;12.70;1.00
21216;DHT22;10765;50.954;5.322;2022-10-16T01:51:10;12.60;1.00
21216;DHT22;10765;50.954;5.322;2022-10-16T01:53:39;12.70;1.00
21216;DHT22;10765;50.954;5.322;2022-10-16T01:56:09;12.70;1.00
21216;DHT22;10765;50.954;5.322;2022-10-16T01:58:43;12.70;1.00
21216;DHT22;10765;50.954;5.322;2022-10-16T02:01:13;12.70;1.00
21216;DHT22;10765;50.954;5.322;2022-10-16T02:03:42;12.60;1.00
21216;DHT22;10765;50.954;5.322;2022-10-16T02:06:09;12.60;1.00
21216;DHT22;10765;50.954;5.322;2022-10-16T02:08:36;12.60;1.00
21216;DHT22;10765;50.954;5.322;2022-10-16T02:11:04;12.60;1.00
21216;DHT22;10765;50.954;5.322;2022-10-16T02:13:34;12.70;1.00
21216;DHT22;10765;50.954;5.322;2022-10-16T02:16:04;12.70;1.00
21216;DHT22;10765;50.954;5.322;2022-10-16T02:18:31;12.60;1.00
21216;DHT22;10765;50.954;5.322;2022-10-16T02:21:00;12.70;1.00
21216;DHT22;10765;50.954;5.322;2022-10-16T02:23:35;12.70;1.00
21216;DHT22;10765;50.954;5.322;2022-10-16T02:26:06;12.70;1.00
21216;DHT22;10765;50.954;5.322;2022-10-16T02:28:39;12.70;1.00
21216;DHT22;10765;50.954;5.322;2022-10-16T02:31:10;12.70;1.00
21216;DHT22;10765;50.954;5.322;2022-10-16T02:33:40;12.60;1.00
21216;DHT22;10765;50.954;5.322;2022-10-16T02:36:08;12.70;5.70
21216;DHT22;10765;50.954;5.322;2022-10-16T02:38:36;12.70;15.70
21216;DHT22;10765;50.954;5.322;2022-10-16T02:41:04;12.70;19.60
21216;DHT22;10765;50.954;5.322;2022-10-16T02:43:31;12.70;1.00
21216;DHT22;10765;50.954;5.322;2022-10-16T02:45:59;12.70;1.00
21216;DHT22;10765;50.954;5.322;2022-10-16T02:48:27;12.70;1.00
21216;DHT22;10765;50.954;5.322;2022-10-16T02:50:54;12.60;49.20
21216;DHT22;10765;50.954;5.322;2022-10-16T02:53:22;12.70;99.90
21216;DHT22;10765;50.954;5.322;2022-10-16T02:55:49;12.70;99.90
21216;DHT22;10765;50.954;5.322;2022-10-16T02:58:16;12.70;99.90
21216;DHT22;10765;50.954;5.322;2022-10-16T03:00:43;12.70;99.90
21216;DHT22;10765;50.954;5.322;2022-10-16T03:03:10;12.70;99.90
21216;DHT22;10765;50.954;5.322;2022-10-16T03:05:38;12.70;99.90
21216;DHT22;10765;50.954;5.322;2022-10-16T03:08:05;12.70;99.90
21216;DHT22;10765;50.954;5.322;2022-10-16T03:10:32;12.70;99.90
21216;DHT22;10765;50.954;5.322;2022-10-16T03:12:59;12.70;99.90
21216;DHT22;10765;50.954;5.322;2022-10-16T03:15:25;12.60;99.90
21216;DHT22;10765;50.954;5.322;2022-10-16T03:17:53;12.60;99.90
21216;DHT22;10765;50.954;5.322;2022-10-16T03:20:20;12.60;99.90
21216;DHT22;10765;50.954;5.322;2022-10-16T03:22:48;12.50;99.90
21216;DHT22;10765;50.954;5.322;2022-10-16T03:25:15;12.50;99.90
21216;DHT22;10765;50.954;5.322;2022-10-16T03:27:42;12.50;99.90
21216;DHT22;10765;50.954;5.322;2022-10-16T03:30:10;12.50;99.90
21216;DHT22;10765;50.954;5.322;2022-10-16T03:32:36;12.50;99.90
21216;DHT22;10765;50.954;5.322;2022-10-16T03:35:04;12.60;99.90
21216;DHT22;10765;50.954;5.322;2022-10-16T03:37:31;12.60;99.90
21216;DHT22;10765;50.954;5.322;2022-10-16T03:39:59;12.60;99.90
21216;DHT22;10765;50.954;5.322;2022-10-16T03:42:26;12.60;99.90
21216;DHT22;10765;50.954;5.322;2022-10-16T03:44:53;12.60;99.90
21216;DHT22;10765;50.954;5.322;2022-10-16T03:47:20;12.60;99.90
21216;DHT22;10765;50.954;5.322;2022-10-16T03:49:48;12.60;99.90
21216;DHT22;10765;50.954;5.322;2022-10-16T03:52:15;12.50;99.90
21216;DHT22;10765;50.954;5.322;2022-10-16T03:54:42;12.50;99.90
21216;DHT22;10765;50.954;5.322;2022-10-16T03:57:11;12.60;99.90
21216;DHT22;10765;50.954;5.322;2022-10-16T03:59:38;12.60;99.90
21216;DHT22;10765;50.954;5.322;2022-10-16T04:02:04;12.50;99.90
21216;DHT22;10765;50.954;5.322;2022-10-16T04:04:31;12.50;99.90
21216;DHT22;10765;50.954;5.322;2022-10-16T04:06:58;12.50;99.90
21216;DHT22;10765;50.954;5.322;2022-10-16T04:09:25;12.50;99.90
21216;DHT22;10765;50.954;5.322;2022-10-16T04:11:52;12.50;99.90
21216;DHT22;10765;50.954;5.322;2022-10-16T04:14:21;12.50;99.90
21216;DHT22;10765;50.954;5.322;2022-10-16T04:16:47;12.50;99.90
21216;DHT22;10765;50.954;5.322;2022-10-16T04:19:14;12.50;99.90
21216;DHT22;10765;50.954;5.322;2022-10-16T04:21:41;12.50;99.90
21216;DHT22;10765;50.954;5.322;2022-10-16T04:24:08;12.50;99.90
21216;DHT22;10765;50.954;5.322;2022-10-16T04:26:36;12.60;99.90
21216;DHT22;10765;50.954;5.322;2022-10-16T04:29:02;12.60;99.90
21216;DHT22;10765;50.954;5.322;2022-10-16T04:31:31;12.60;99.90
21216;DHT22;10765;50.954;5.322;2022-10-16T04:33:58;12.60;99.90
21216;DHT22;10765;50.954;5.322;2022-10-16T04:36:25;12.60;99.90
21216;DHT22;10765;50.954;5.322;2022-10-16T04:38:52;12.60;99.90
21216;DHT22;10765;50.954;5.322;2022-10-16T04:41:19;12.60;99.90
21216;DHT22;10765;50.954;5.322;2022-10-16T04:43:46;12.60;99.90
21216;DHT22;10765;50.954;5.322;2022-10-16T04:46:13;12.60;99.90
21216;DHT22;10765;50.954;5.322;2022-10-16T04:48:41;12.60;99.90
21216;DHT22;10765;50.954;5.322;2022-10-16T04:51:08;12.60;99.90
21216;DHT22;10765;50.954;5.322;2022-10-16T04:53:35;12.60;99.90
21216;DHT22;10765;50.954;5.322;2022-10-16T04:56:02;12.70;99.90
21216;DHT22;10765;50.954;5.322;2022-10-16T04:58:28;12.70;99.90
21216;DHT22;10765;50.954;5.322;2022-10-16T05:00:55;12.60;99.90
21216;DHT22;10765;50.954;5.322;2022-10-16T05:03:22;12.60;99.90
21216;DHT22;10765;50.954;5.322;2022-10-16T05:05:50;12.70;99.90
21216;DHT22;10765;50.954;5.322;2022-10-16T05:08:17;12.70;99.90
21216;DHT22;10765;50.954;5.322;2022-10-16T05:10:45;12.60;99.90
21216;DHT22;10765;50.954;5.322;2022-10-16T05:13:12;12.60;99.90
21216;DHT22;10765;50.954;5.322;2022-10-16T05:15:39;12.60;99.90
21216;DHT22;10765;50.954;5.322;2022-10-16T05:18:06;12.50;99.90
21216;DHT22;10765;50.954;5.322;2022-10-16T05:20:32;12.50;99.90
21216;DHT22;10765;50.954;5.322;2022-10-16T05:23:01;12.50;99.90
21216;DHT22;10765;50.954;5.322;2022-10-16T05:25:28;12.40;99.90
21216;DHT22;10765;50.954;5.322;2022-10-16T05:27:54;12.40;99.90
21216;DHT22;10765;50.954;5.322;2022-10-16T05:30:21;12.40;99.90
21216;DHT22;10765;50.954;5.322;2022-10-16T05:32:49;12.40;99.90
21216;DHT22;10765;50.954;5.322;2022-10-16T05:35:17;12.40;99.90
21216;DHT22;10765;50.954;5.322;2022-10-16T05:37:44;12.40;99.90
21216;DHT22;10765;50.954;5.322;2022-10-16T05:40:13;12.50;99.90
21216;DHT22;10765;50.954;5.322;2022-10-16T05:42:40;12.50;99.90
21216;DHT22;10765;50.954;5.322;2022-10-16T05:45:09;12.50;99.90
21216;DHT22;10765;50.954;5.322;2022-10-16T05:47:36;12.50;99.90
21216;DHT22;10765;50.954;5.322;2022-10-16T05:50:04;12.50;99.90
21216;DHT22;10765;50.954;5.322;2022-10-16T05:52:31;12.50;99.90
21216;DHT22;10765;50.954;5.322;2022-10-16T05:54:58;12.50;99.90
21216;DHT22;10765;50.954;5.322;2022-10-16T05:57:26;12.50;99.90
21216;DHT22;10765;50.954;5.322;2022-10-16T05:59:53;12.50;99.90
21216;DHT22;10765;50.954;5.322;2022-10-16T06:02:19;12.40;99.90
21216;DHT22;10765;50.954;5.322;2022-10-16T06:04:46;12.40;99.90
21216;DHT22;10765;50.954;5.322;2022-10-16T06:07:13;12.40;99.90
21216;DHT22;10765;50.954;5.322;2022-10-16T06:09:40;12.40;99.90
21216;DHT22;10765;50.954;5.322;2022-10-16T06:12:07;12.40;99.90
21216;DHT22;10765;50.954;5.322;2022-10-16T06:14:35;12.40;99.90
21216;DHT22;10765;50.954;5.322;2022-10-16T06:17:02;12.30;99.90
21216;DHT22;10765;50.954;5.322;2022-10-16T06:19:29;12.30;99.90
21216;DHT22;10765;50.954;5.322;2022-10-16T06:21:57;12.30;99.90
21216;DHT22;10765;50.954;5.322;2022-10-16T06:24:24;12.30;99.90
21216;DHT22;10765;50.954;5.322;2022-10-16T06:26:51;12.30;99.90
21216;DHT22;10765;50.954;5.322;2022-10-16T06:29:18;12.30;99.90
21216;DHT22;10765;50.954;5.322;2022-10-16T06:31:46;12.30;99.90
21216;DHT22;10765;50.954;5.322;2022-10-16T06:34:13;12.40;99.90
21216;DHT22;10765;50.954;5.322;2022-10-16T06:36:40;12.40;99.90
21216;DHT22;10765;50.954;5.322;2022-10-16T06:39:08;12.40;99.90
21216;DHT22;10765;50.954;5.322;2022-10-16T06:41:35;12.40;99.90
21216;DHT22;10765;50.954;5.322;2022-10-16T06:44:06;12.40;99.90
21216;DHT22;10765;50.954;5.322;2022-10-16T06:46:33;12.40;99.90
21216;DHT22;10765;50.954;5.322;2022-10-16T06:49:02;12.40;99.90
21216;DHT22;10765;50.954;5.322;2022-10-16T06:51:29;12.40;99.90
21216;DHT22;10765;50.954;5.322;2022-10-16T06:53:57;12.50;99.90
21216;DHT22;10765;50.954;5.322;2022-10-16T06:56:26;12.50;99.90
21216;DHT22;10765;50.954;5.322;2022-10-16T06:58:55;12.70;99.90
21216;DHT22;10765;50.954;5.322;2022-10-16T07:01:23;13.00;99.90
21216;DHT22;10765;50.954;5.322;2022-10-16T07:03:50;14.10;99.90
21216;DHT22;10765;50.954;5.322;2022-10-16T07:06:20;15.40;99.90
21216;DHT22;10765;50.954;5.322;2022-10-16T07:08:48;16.60;99.90
21216;DHT22;10765;50.954;5.322;2022-10-16T07:11:17;17.50;1.00
21216;DHT22;10765;50.954;5.322;2022-10-16T07:13:45;18.20;1.00
21216;DHT22;10765;50.954;5.322;2022-10-16T07:16:14;18.80;99.90
21216;DHT22;10765;50.954;5.322;2022-10-16T07:18:42;19.20;1.80
21216;DHT22;10765;50.954;5.322;2022-10-16T07:21:12;19.90;1.00
21216;DHT22;10765;50.954;5.322;2022-10-16T07:23:41;20.70;1.00
21216;DHT22;10765;50.954;5.322;2022-10-16T07:26:09;21.20;1.00
21216;DHT22;10765;50.954;5.322;2022-10-16T07:28:36;21.60;1.00
21216;DHT22;10765;50.954;5.322;2022-10-16T07:31:04;22.20;99.90
21216;DHT22;10765;50.954;5.322;2022-10-16T07:33:33;22.60;99.90
21216;DHT22;10765;50.954;5.322;2022-10-16T07:36:01;22.90;99.90
21216;DHT22;10765;50.954;5.322;2022-10-16T07:38:28;23.20;99.90
21216;DHT22;10765;50.954;5.322;2022-10-16T07:41:00;23.80;99.90
21216;DHT22;10765;50.954;5.322;2022-10-16T07:43:28;24.40;99.90
21216;DHT22;10765;50.954;5.322;2022-10-16T07:45:55;24.30;99.90
21216;DHT22;10765;50.954;5.322;2022-10-16T07:48:22;24.40;99.90
21216;DHT22;10765;50.954;5.322;2022-10-16T07:50:50;25.20;99.90
21216;DHT22;10765;50.954;5.322;2022-10-16T07:53:16;24.80;99.90
21216;DHT22;10765;50.954;5.322;2022-10-16T07:55:43;25.10;99.90
21216;DHT22;10765;50.954;5.322;2022-10-16T07:58:12;25.40;99.90
21216;DHT22;10765;50.954;5.322;2022-10-16T08:00:38;26.10;99.90
21216;DHT22;10765;50.954;5.322;2022-10-16T08:03:05;26.80;99.90
21216;DHT22;10765;50.954;5.322;2022-10-16T08:05:33;26.70;99.90
21216;DHT22;10765;50.954;5.322;2022-10-16T08:08:00;26.40;99.90
21216;DHT22;10765;50.954;5.322;2022-10-16T08:10:28;26.90;99.90
21216;DHT22;10765;50.954;5.322;2022-10-16T08:12:55;27.20;99.90
21216;DHT22;10765;50.954;5.322;2022-10-16T08:15:24;26.60;99.90
21216;DHT22;10765;50.954;5.322;2022-10-16T08:17:58;24.90;99.90
21216;DHT22;10765;50.954;5.322;2022-10-16T08:20:26;24.20;99.90
21216;DHT22;10765;50.954;5.322;2022-10-16T08:22:54;25.20;99.90
21216;DHT22;10765;50.954;5.322;2022-10-16T08:25:21;26.30;99.90
21216;DHT22;10765;50.954;5.322;2022-10-16T08:27:49;26.80;99.90
21216;DHT22;10765;50.954;5.322;2022-10-16T08:30:17;27.70;99.90
21216;DHT22;10765;50.954;5.322;2022-10-16T08:32:45;27.30;99.90
21216;DHT22;10765;50.954;5.322;2022-10-16T08:35:13;27.20;99.90
21216;DHT22;10765;50.954;5.322;2022-10-16T08:37:41;27.60;99.90
21216;DHT22;10765;50.954;5.322;2022-10-16T08:40:16;28.20;99.90
21216;DHT22;10765;50.954;5.322;2022-10-16T08:42:58;28.40;99.90
21216;DHT22;10765;50.954;5.322;2022-10-16T08:45:42;28.70;99.90
21216;DHT22;10765;50.954;5.322;2022-10-16T08:48:20;28.90;99.90
21216;DHT22;10765;50.954;5.322;2022-10-16T08:50:49;28.40;99.90
21216;DHT22;10765;50.954;5.322;2022-10-16T08:53:20;29.30;99.90
21216;DHT22;10765;50.954;5.322;2022-10-16T08:55:50;30.30;99.90
21216;DHT22;10765;50.954;5.322;2022-10-16T08:58:19;30.00;99.90
21216;DHT22;10765;50.954;5.322;2022-10-16T09:00:47;29.20;99.90
21216;DHT22;10765;50.954;5.322;2022-10-16T09:03:44;29.30;99.90
21216;DHT22;10765;50.954;5.322;2022-10-16T09:06:34;29.90;99.90
21216;DHT22;10765;50.954;5.322;2022-10-16T09:09:14;30.50;99.90
21216;DHT22;10765;50.954;5.322;2022-10-16T09:11:48;31.60;99.90
21216;DHT22;10765;50.954;5.322;2022-10-16T09:14:36;32.30;99.90
21216;DHT22;10765;50.954;5.322;2022-10-16T09:17:17;32.50;99.90
21216;DHT22;10765;50.954;5.322;2022-10-16T09:19:51;32.20;99.90
21216;DHT22;10765;50.954;5.322;2022-10-16T09:22:22;32.60;99.90
21216;DHT22;10765;50.954;5.322;2022-10-16T09:24:51;33.30;99.90
21216;DHT22;10765;50.954;5.322;2022-10-16T09:27:18;33.30;99.90
21216;DHT22;10765;50.954;5.322;2022-10-16T09:29:45;32.80;99.90
21216;DHT22;10765;50.954;5.322;2022-10-16T09:32:14;33.10;99.90
21216;DHT22;10765;50.954;5.322;2022-10-16T09:34:45;33.70;99.90
21216;DHT22;10765;50.954;5.322;2022-10-16T09:37:18;32.80;99.90
21216;DHT22;10765;50.954;5.322;2022-10-16T09:39:46;30.70;99.90
21216;DHT22;10765;50.954;5.322;2022-10-16T09:42:16;31.20;99.90
21216;DHT22;10765;50.954;5.322;2022-10-16T09:44:47;32.20;99.90
21216;DHT22;10765;50.954;5.322;2022-10-16T09:47:16;33.10;99.90
21216;DHT22;10765;50.954;5.322;2022-10-16T09:49:51;34.00;99.90
21216;DHT22;10765;50.954;5.322;2022-10-16T09:52:21;34.60;99.90
21216;DHT22;10765;50.954;5.322;2022-10-16T09:54:52;34.50;99.90
21216;DHT22;10765;50.954;5.322;2022-10-16T09:57:20;35.00;99.90
21216;DHT22;10765;50.954;5.322;2022-10-16T09:59:48;32.20;99.90
21216;DHT22;10765;50.954;5.322;2022-10-16T10:02:17;31.80;99.90
21216;DHT22;10765;50.954;5.322;2022-10-16T10:04:49;33.30;99.90
21216;DHT22;10765;50.954;5.322;2022-10-16T10:07:25;33.90;99.90
21216;DHT22;10765;50.954;5.322;2022-10-16T10:09:53;33.80;99.90
21216;DHT22;10765;50.954;5.322;2022-10-16T10:12:23;33.70;99.90
21216;DHT22;10765;50.954;5.322;2022-10-16T10:14:52;34.60;99.90
21216;DHT22;10765;50.954;5.322;2022-10-16T10:17:20;33.90;99.90
21216;DHT22;10765;50.954;5.322;2022-10-16T10:19:50;32.30;99.90
21216;DHT22;10765;50.954;5.322;2022-10-16T10:22:23;30.60;99.90
21216;DHT22;10765;50.954;5.322;2022-10-16T10:25:01;32.20;99.90
21216;DHT22;10765;50.954;5.322;2022-10-16T10:27:38;34.20;99.90
21216;DHT22;10765;50.954;5.322;2022-10-16T10:30:10;34.90;99.90
21216;DHT22;10765;50.954;5.322;2022-10-16T10:32:47;34.10;99.90
21216;DHT22;10765;50.954;5.322;2022-10-16T10:35:22;31.30;99.90
21216;DHT22;10765;50.954;5.322;2022-10-16T10:38:05;28.80;99.90
21216;DHT22;10765;50.954;5.322;2022-10-16T10:40:43;27.80;99.90
21216;DHT22;10765;50.954;5.322;2022-10-16T10:43:20;27.80;99.90
21216;DHT22;10765;50.954;5.322;2022-10-16T10:45:54;30.80;99.90
21216;DHT22;10765;50.954;5.322;2022-10-16T10:48:40;30.50;99.90
21216;DHT22;10765;50.954;5.322;2022-10-16T10:51:19;28.40;99.90
21216;DHT22;10765;50.954;5.322;2022-10-16T10:53:55;26.90;99.90
21216;DHT22;10765;50.954;5.322;2022-10-16T10:56:41;26.70;99.90
21216;DHT22;10765;50.954;5.322;2022-10-16T10:59:29;26.40;99.90
21216;DHT22;10765;50.954;5.322;2022-10-16T11:02:01;27.20;99.90
21216;DHT22;10765;50.954;5.322;2022-10-16T11:04:43;26.60;99.90
21216;DHT22;10765;50.954;5.322;2022-10-16T11:07:18;25.40;99.90
21216;DHT22;10765;50.954;5.322;2022-10-16T11:09:51;24.40;99.90
21216;DHT22;10765;50.954;5.322;2022-10-16T11:12:21;23.70;99.90
21216;DHT22;10765;50.954;5.322;2022-10-16T11:14:54;23.40;99.90
21216;DHT22;10765;50.954;5.322;2022-10-16T11:17:25;23.40;99.90
21216;DHT22;10765;50.954;5.322;2022-10-16T11:19:56;23.70;99.90
21216;DHT22;10765;50.954;5.322;2022-10-16T11:22:30;23.40;99.90
21216;DHT22;10765;50.954;5.322;2022-10-16T11:25:06;23.20;99.90
21216;DHT22;10765;50.954;5.322;2022-10-16T11:27:40;23.10;99.90
21216;DHT22;10765;50.954;5.322;2022-10-16T11:30:15;23.00;99.90
21216;DHT22;10765;50.954;5.322;2022-10-16T11:32:52;23.20;99.90
21216;DHT22;10765;50.954;5.322;2022-10-16T11:35:25;23.50;99.90
21216;DHT22;10765;50.954;5.322;2022-10-16T11:37:57;23.70;99.90
21216;DHT22;10765;50.954;5.322;2022-10-16T11:40:30;23.30;99.90
21216;DHT22;10765;50.954;5.322;2022-10-16T11:43:04;23.30;99.90
21216;DHT22;10765;50.954;5.322;2022-10-16T11:45:36;23.80;99.90
21216;DHT22;10765;50.954;5.322;2022-10-16T11:48:15;23.70;99.90
21216;DHT22;10765;50.954;5.322;2022-10-16T11:50:50;24.20;99.90
21216;DHT22;10765;50.954;5.322;2022-10-16T11:53:23;24.80;99.90
21216;DHT22;10765;50.954;5.322;2022-10-16T11:55:55;25.10;99.90
21216;DHT22;10765;50.954;5.322;2022-10-16T11:58:25;24.90;99.90
21216;DHT22;10765;50.954;5.322;2022-10-16T12:00:58;24.80;99.90
21216;DHT22;10765;50.954;5.322;2022-10-16T12:03:30;24.30;99.90
21216;DHT22;10765;50.954;5.322;2022-10-16T12:06:17;23.10;99.90
21216;DHT22;10765;50.954;5.322;2022-10-16T12:08:49;23.30;99.90
21216;DHT22;10765;50.954;5.322;2022-10-16T12:11:24;23.40;99.90
21216;DHT22;10765;50.954;5.322;2022-10-16T12:14:21;23.40;99.90
21216;DHT22;10765;50.954;5.322;2022-10-16T12:16:53;23.70;99.90
21216;DHT22;10765;50.954;5.322;2022-10-16T12:19:22;23.80;99.90
21216;DHT22;10765;50.954;5.322;2022-10-16T12:21:50;23.60;99.90
21216;DHT22;10765;50.954;5.322;2022-10-16T12:24:27;23.30;99.90
21216;DHT22;10765;50.954;5.322;2022-10-16T12:26:58;23.10;99.90
21216;DHT22;10765;50.954;5.322;2022-10-16T12:29:32;22.90;99.90
21216;DHT22;10765;50.954;5.322;2022-10-16T12:31:59;23.30;99.90
21216;DHT22;10765;50.954;5.322;2022-10-16T12:34:29;23.80;99.90
21216;DHT22;10765;50.954;5.322;2022-10-16T12:37:09;24.40;99.90
21216;DHT22;10765;50.954;5.322;2022-10-16T12:39:37;25.80;99.90
21216;DHT22;10765;50.954;5.322;2022-10-16T12:42:22;30.00;99.90
21216;DHT22;10765;50.954;5.322;2022-10-16T12:44:50;29.70;99.90
21216;DHT22;10765;50.954;5.322;2022-10-16T12:47:22;26.40;99.90
21216;DHT22;10765;50.954;5.322;2022-10-16T12:49:52;24.50;99.90
21216;DHT22;10765;50.954;5.322;2022-10-16T12:52:26;23.80;99.90
21216;DHT22;10765;50.954;5.322;2022-10-16T12:54:56;23.30;99.90
21216;DHT22;10765;50.954;5.322;2022-10-16T12:57:37;22.70;99.90
21216;DHT22;10765;50.954;5.322;2022-10-16T13:00:16;22.60;99.90
21216;DHT22;10765;50.954;5.322;2022-10-16T13:06:09;22.30;99.90
21216;DHT22;10765;50.954;5.322;2022-10-16T13:08:50;22.20;99.90
21216;DHT22;10765;50.954;5.322;2022-10-16T13:11:25;22.30;99.90
21216;DHT22;10765;50.954;5.322;2022-10-16T13:14:20;22.30;99.90
21216;DHT22;10765;50.954;5.322;2022-10-16T13:16:54;22.20;99.90
21216;DHT22;10765;50.954;5.322;2022-10-16T13:19:29;21.80;99.90
21216;DHT22;10765;50.954;5.322;2022-10-16T13:22:03;21.90;99.90
21216;DHT22;10765;50.954;5.322;2022-10-16T13:24:47;22.00;99.90
21216;DHT22;10765;50.954;5.322;2022-10-16T13:27:25;21.60;99.90
21216;DHT22;10765;50.954;5.322;2022-10-16T13:30:12;21.50;99.90
21216;DHT22;10765;50.954;5.322;2022-10-16T13:32:40;21.40;99.90
21216;DHT22;10765;50.954;5.322;2022-10-16T13:35:20;21.50;99.90
21216;DHT22;10765;50.954;5.322;2022-10-16T13:37:47;21.50;99.90
21216;DHT22;10765;50.954;5.322;2022-10-16T13:40:19;21.60;99.90
21216;DHT22;10765;50.954;5.322;2022-10-16T13:42:47;21.40;99.90
21216;DHT22;10765;50.954;5.322;2022-10-16T13:45:19;21.80;99.90
21216;DHT22;10765;50.954;5.322;2022-10-16T13:47:46;21.80;99.90
21216;DHT22;10765;50.954;5.322;2022-10-16T13:50:15;22.00;99.90
21216;DHT22;10765;50.954;5.322;2022-10-16T13:52:42;22.10;99.90
21216;DHT22;10765;50.954;5.322;2022-10-16T13:55:13;22.20;99.90
21216;DHT22;10765;50.954;5.322;2022-10-16T13:57:41;22.00;99.90
21216;DHT22;10765;50.954;5.322;2022-10-16T14:00:24;22.20;99.90
21216;DHT22;10765;50.954;5.322;2022-10-16T14:03:00;22.10;99.90
21216;DHT22;10765;50.954;5.322;2022-10-16T14:05:28;22.10;99.90
21216;DHT22;10765;50.954;5.322;2022-10-16T14:07:56;21.70;99.90
21216;DHT22;10765;50.954;5.322;2022-10-16T14:10:26;22.00;99.90
21216;DHT22;10765;50.954;5.322;2022-10-16T14:12:58;22.10;99.90
21216;DHT22;10765;50.954;5.322;2022-10-16T14:15:27;22.10;99.90
21216;DHT22;10765;50.954;5.322;2022-10-16T14:17:55;21.90;99.90
21216;DHT22;10765;50.954;5.322;2022-10-16T14:20:25;21.50;99.90
21216;DHT22;10765;50.954;5.322;2022-10-16T14:23:00;21.60;99.90
21216;DHT22;10765;50.954;5.322;2022-10-16T14:25:29;21.80;99.90
21216;DHT22;10765;50.954;5.322;2022-10-16T14:28:01;21.80;99.90
21216;DHT22;10765;50.954;5.322;2022-10-16T14:30:32;21.80;99.90
21216;DHT22;10765;50.954;5.322;2022-10-16T14:33:01;21.50;99.90
21216;DHT22;10765;50.954;5.322;2022-10-16T14:35:30;21.20;99.90
21216;DHT22;10765;50.954;5.322;2022-10-16T14:37:59;21.20;99.90
21216;DHT22;10765;50.954;5.322;2022-10-16T14:40:28;21.20;99.90
21216;DHT22;10765;50.954;5.322;2022-10-16T14:42:55;21.00;99.90
21216;DHT22;10765;50.954;5.322;2022-10-16T14:45:24;20.60;99.90
21216;DHT22;10765;50.954;5.322;2022-10-16T14:47:56;20.50;99.90
21216;DHT22;10765;50.954;5.322;2022-10-16T14:50:23;20.60;99.90
21216;DHT22;10765;50.954;5.322;2022-10-16T14:52:51;20.40;1.00
21216;DHT22;10765;50.954;5.322;2022-10-16T14:55:18;20.40;1.00
21216;DHT22;10765;50.954;5.322;2022-10-16T14:57:45;20.50;1.00
21216;DHT22;10765;50.954;5.322;2022-10-16T15:00:17;20.40;1.00
21216;DHT22;10765;50.954;5.322;2022-10-16T15:02:45;20.30;1.00
21216;DHT22;10765;50.954;5.322;2022-10-16T15:05:16;20.50;1.00
21216;DHT22;10765;50.954;5.322;2022-10-16T15:07:44;20.70;1.00
21216;DHT22;10765;50.954;5.322;2022-10-16T15:10:11;20.80;1.00
21216;DHT22;10765;50.954;5.322;2022-10-16T15:12:38;20.90;1.00
21216;DHT22;10765;50.954;5.322;2022-10-16T15:15:25;20.90;1.00
21216;DHT22;10765;50.954;5.322;2022-10-16T15:17:54;20.80;1.00
21216;DHT22;10765;50.954;5.322;2022-10-16T15:20:25;20.60;1.00
21216;DHT22;10765;50.954;5.322;2022-10-16T15:22:52;20.50;1.00
21216;DHT22;10765;50.954;5.322;2022-10-16T15:25:30;20.40;1.00
21216;DHT22;10765;50.954;5.322;2022-10-16T15:27:57;20.40;1.00
21216;DHT22;10765;50.954;5.322;2022-10-16T15:30:25;20.30;1.00
21216;DHT22;10765;50.954;5.322;2022-10-16T15:32:51;20.10;1.00
21216;DHT22;10765;50.954;5.322;2022-10-16T15:35:19;19.90;1.00
21216;DHT22;10765;50.954;5.322;2022-10-16T15:37:48;19.80;1.00
21216;DHT22;10765;50.954;5.322;2022-10-16T15:40:15;19.60;1.00
21216;DHT22;10765;50.954;5.322;2022-10-16T15:42:43;19.60;1.00
21216;DHT22;10765;50.954;5.322;2022-10-16T15:45:11;19.50;1.00
21216;DHT22;10765;50.954;5.322;2022-10-16T15:47:38;19.40;1.00
21216;DHT22;10765;50.954;5.322;2022-10-16T15:50:06;19.30;1.00
21216;DHT22;10765;50.954;5.322;2022-10-16T15:52:33;19.10;1.00
21216;DHT22;10765;50.954;5.322;2022-10-16T15:55:01;19.10;1.00
21216;DHT22;10765;50.954;5.322;2022-10-16T15:57:29;19.10;1.00